Time;durP1;ratioP1;P1;durP2;ratioP2;P2;SDS_P1;SDS_P2;PMS_P1;PMS_P2;Temp;Humidity;BMP_temperature;BMP_pressure;BME280_temperature;BME280_humidity;BME280_pressure;Samples;Min_cycle;Max_cycle;Signal;HPM_P1;HPM_P2
2021/03/24 00:01:39;;;;;;;33.63;17.03;;;;;;;-0.12;85.12;97063.69;5064966;28;20457;-76
2021/03/24 00:04:05;;;;;;;28.00;16.40;;;;;;;-0.21;85.02;97070.13;4990987;28;20037;-76
2021/03/24 00:06:32;;;;;;;31.00;16.83;;;;;;;-0.27;85.55;97081.59;5004345;28;20578;-77
2021/03/24 00:08:59;;;;;;;29.30;16.03;;;;;;;-0.34;85.25;97074.19;5008310;28;20576;-77
2021/03/24 00:11:25;;;;;;;29.23;15.43;;;;;;;-0.33;85.81;97071.56;4995379;28;20473;-77
2021/03/24 00:13:50;;;;;;;30.97;16.47;;;;;;;-0.33;86.07;97063.81;5000465;28;21002;-76
2021/03/24 00:16:16;;;;;;;29.70;15.70;;;;;;;-0.32;86.02;97074.97;4983521;28;20034;-77
2021/03/24 00:18:42;;;;;;;35.23;16.43;;;;;;;-0.32;85.96;97070.63;5009815;28;20022;-77
2021/03/24 00:21:09;;;;;;;35.80;16.37;;;;;;;-0.35;86.13;97073.34;4998024;28;20480;-77
2021/03/24 00:23:35;;;;;;;34.13;18.10;;;;;;;-0.37;85.77;97067.44;5014943;28;20469;-76
2021/03/24 00:26:01;;;;;;;31.80;17.43;;;;;;;-0.37;85.44;97070.03;5000932;28;20506;-76
2021/03/24 00:28:27;;;;;;;30.97;15.93;;;;;;;-0.37;85.04;97070.03;4999795;28;20061;-77
2021/03/24 00:30:53;;;;;;;30.50;15.67;;;;;;;-0.43;85.40;97070.31;5006689;28;20473;-76
2021/03/24 00:33:25;;;;;;;27.20;15.57;;;;;;;-0.52;85.66;97066.38;5020660;28;20457;-77
2021/03/24 00:35:51;;;;;;;31.90;15.57;;;;;;;-0.59;85.96;97074.50;4979499;28;20469;-77
2021/03/24 00:38:20;;;;;;;30.27;16.83;;;;;;;-0.56;86.27;97079.53;4997244;28;20537;-76
2021/03/24 00:40:48;;;;;;;28.93;16.33;;;;;;;-0.59;86.49;97074.50;5002963;28;20483;-76
2021/03/24 00:43:15;;;;;;;31.90;16.30;;;;;;;-0.61;86.75;97076.31;4995213;28;20472;-76
2021/03/24 00:45:41;;;;;;;33.00;15.93;;;;;;;-0.66;86.94;97071.34;4987494;28;20776;-76
2021/03/24 00:48:14;;;;;;;29.73;17.90;;;;;;;-0.63;87.06;97075.56;4995743;28;20511;-76
2021/03/24 00:50:39;;;;;;;31.50;15.87;;;;;;;-0.63;86.67;97071.22;5108674;27;20500;-76
2021/03/24 00:53:05;;;;;;;33.73;17.47;;;;;;;-0.72;87.28;97066.47;5009250;28;20833;-76
2021/03/24 00:55:31;;;;;;;30.80;16.80;;;;;;;-0.72;87.16;97061.31;4980639;28;20035;-77
2021/03/24 00:57:56;;;;;;;29.37;15.77;;;;;;;-0.77;87.29;97058.94;5104894;27;20026;-76
2021/03/24 01:00:31;;;;;;;31.70;15.97;;;;;;;-0.82;87.73;97053.13;4994696;28;20562;-76
2021/03/24 01:02:57;;;;;;;31.67;16.63;;;;;;;-0.85;87.40;97055.84;5075827;28;20114;-76
2021/03/24 01:05:26;;;;;;;26.70;15.90;;;;;;;-0.86;87.14;97056.75;4995381;28;20438;-76
2021/03/24 01:08:10;;;;;;;31.97;17.07;;;;;;;-0.93;87.58;97050.22;5066935;28;20464;-76
2021/03/24 01:10:37;;;;;;;30.92;15.65;;;;;;;-0.97;87.51;97046.94;4998561;28;20487;-76
2021/03/24 01:13:03;;;;;;;28.40;15.33;;;;;;;-1.00;87.84;97053.97;5001419;28;20177;-75
2021/03/24 01:15:30;;;;;;;29.07;16.00;;;;;;;-1.04;87.78;97045.53;4994825;28;20477;-76
2021/03/24 01:17:56;;;;;;;29.40;14.90;;;;;;;-1.10;87.71;97043.22;4987998;28;20803;-76
2021/03/24 01:20:27;;;;;;;33.03;15.23;;;;;;;-1.16;88.13;97037.47;5001058;28;20481;-76
2021/03/24 01:22:57;;;;;;;30.33;15.20;;;;;;;-1.05;87.89;97035.25;4994296;28;20031;-76
2021/03/24 01:25:25;;;;;;;27.67;15.17;;;;;;;-1.11;87.59;97035.53;4985293;28;20469;-76
2021/03/24 01:27:52;;;;;;;30.63;16.67;;;;;;;-1.07;88.15;97035.34;4986782;28;20472;-76
2021/03/24 01:30:19;;;;;;;48.20;19.87;;;;;;;-1.06;87.83;97041.34;4989000;28;20497;-76
2021/03/24 01:32:46;;;;;;;44.97;20.73;;;;;;;-1.05;87.98;97045.56;4991217;28;20768;-76
2021/03/24 01:35:14;;;;;;;37.03;17.10;;;;;;;-1.03;87.61;97041.19;5024804;28;20459;-76
2021/03/24 01:37:40;;;;;;;32.10;15.97;;;;;;;-1.06;87.33;97036.16;4993686;28;21028;-76
2021/03/24 01:40:09;;;;;;;34.43;14.90;;;;;;;-1.07;87.56;97037.91;4996112;28;20517;-76
2021/03/24 01:42:35;;;;;;;36.50;17.00;;;;;;;-1.07;87.67;97032.75;5115830;27;20065;-76
2021/03/24 01:45:16;;;;;;;29.13;14.57;;;;;;;-1.14;87.64;97046.84;4987366;28;20865;-76
2021/03/24 01:47:43;;;;;;;30.43;15.87;;;;;;;-1.19;88.11;97041.84;4985309;28;20037;-76
2021/03/24 01:50:21;;;;;;;24.87;13.60;;;;;;;-1.24;88.08;97038.66;4987610;28;20477;-76
2021/03/24 01:52:47;;;;;;;32.50;15.90;;;;;;;-1.22;87.47;97031.66;5004018;28;20505;-76
2021/03/24 01:55:13;;;;;;;29.47;15.47;;;;;;;-1.26;87.71;97031.88;4987059;28;20508;-76
2021/03/24 01:57:42;;;;;;;25.93;14.97;;;;;;;-1.23;87.75;97030.00;4993881;28;20038;-76
2021/03/24 02:00:14;;;;;;;25.80;14.20;;;;;;;-1.21;88.11;97027.34;4984750;28;20453;-76
2021/03/24 02:02:40;;;;;;;35.03;14.57;;;;;;;-1.20;87.67;97024.72;4991696;28;20484;-76
2021/03/24 02:05:07;;;;;;;26.37;14.57;;;;;;;-1.22;87.78;97029.09;5016492;28;21005;-76
2021/03/24 02:07:58;;;;;;;39.20;17.47;;;;;;;-1.18;87.91;97027.22;4996026;28;20037;-76
2021/03/24 02:10:43;;;;;;;30.47;16.20;;;;;;;-1.25;87.92;97029.22;4995238;28;20509;-76
2021/03/24 02:13:26;;;;;;;30.23;16.77;;;;;;;-1.25;87.42;97018.06;4999125;28;20435;-76
2021/03/24 02:15:59;;;;;;;29.58;16.42;;;;;;;-1.18;88.11;97016.88;4986501;28;20481;-76
2021/03/24 02:18:28;;;;;;;32.47;17.00;;;;;;;-1.25;88.24;97018.91;4996567;28;20049;-76
2021/03/24 02:21:01;;;;;;;30.23;15.20;;;;;;;-1.28;88.33;97024.19;4993529;28;20639;-75
2021/03/24 02:23:31;;;;;;;;;;;;;;;-1.27;88.38;97025.06;4995489;28;20811;-76
2021/03/24 02:26:23;;;;;;;33.23;15.77;;;;;;;-1.31;87.99;97021.78;4991810;28;19922;-76
2021/03/24 02:28:51;;;;;;;29.57;14.93;;;;;;;-1.32;88.29;97016.66;4995142;28;20461;-76
2021/03/24 02:31:23;;;;;;;29.73;14.83;;;;;;;-1.38;88.25;97016.94;5075329;28;20491;-76
2021/03/24 02:33:52;;;;;;;30.60;16.43;;;;;;;-1.40;88.62;97016.19;4996653;28;20464;-76
2021/03/24 02:36:20;;;;;;;31.27;16.13;;;;;;;-1.47;88.56;97013.84;4994136;28;20807;-75
2021/03/24 02:38:49;;;;;;;30.10;15.50;;;;;;;-1.43;88.53;97015.41;5012551;28;20469;-76
2021/03/24 02:41:17;;;;;;;29.97;15.17;;;;;;;-1.43;88.45;97011.97;4998019;28;20473;-76
2021/03/24 02:43:44;;;;;;;32.17;15.73;;;;;;;-1.46;88.52;97025.00;5073621;28;20576;-76
2021/03/24 02:46:13;;;;;;;29.93;15.60;;;;;;;-1.49;88.61;97019.97;5004025;28;20880;-76
2021/03/24 02:48:40;;;;;;;33.27;16.27;;;;;;;-1.53;88.61;97018.44;5023458;28;20453;-76
2021/03/24 02:51:21;;;;;;;32.93;15.27;;;;;;;-1.55;88.98;97015.91;5090554;27;20482;-76
2021/03/24 02:53:48;;;;;;;29.80;14.77;;;;;;;-1.51;88.63;97016.63;4997262;28;20473;-76
2021/03/24 02:56:14;;;;;;;28.87;15.33;;;;;;;-1.51;88.88;97016.63;4998034;28;20841;-76
2021/03/24 02:58:40;;;;;;;23.63;13.97;;;;;;;-1.57;88.52;97017.75;5077610;28;20482;-76
2021/03/24 03:01:16;;;;;;;27.57;15.57;;;;;;;-1.59;89.07;97018.69;5084736;28;20367;-76
2021/03/24 03:03:48;;;;;;;27.97;14.77;;;;;;;-1.73;88.94;97011.56;4988310;28;20556;-76
2021/03/24 03:06:18;;;;;;;27.27;15.03;;;;;;;-1.79;89.03;97016.97;4969705;28;20461;-76
2021/03/24 03:08:49;;;;;;;33.37;15.90;;;;;;;-1.86;89.15;97016.38;4994375;28;20440;-76
2021/03/24 03:11:31;;;;;;;30.10;15.87;;;;;;;-1.95;89.59;97015.00;5087266;28;20542;-76
2021/03/24 03:14:10;;;;;;;32.13;16.83;;;;;;;-1.96;89.82;97010.75;4986373;28;20521;-76
2021/03/24 03:16:39;;;;;;;32.00;15.87;;;;;;;-1.91;89.92;97008.00;4986934;28;20518;-76
2021/03/24 03:19:08;;;;;;;30.60;15.80;;;;;;;-1.85;89.65;97006.91;4982811;28;20460;-76
2021/03/24 03:21:43;;;;;;;29.77;16.40;;;;;;;-1.96;89.91;97012.50;4993136;28;20434;-76
2021/03/24 03:24:11;;;;;;;34.83;16.47;;;;;;;-1.96;89.41;97008.19;4983559;28;20525;-76
2021/03/24 03:26:40;;;;;;;28.10;15.63;;;;;;;-1.97;89.55;97010.84;5001986;28;20453;-75
2021/03/24 03:29:14;;;;;;;26.73;16.17;;;;;;;-2.06;89.76;97014.63;5101625;27;21001;-76
2021/03/24 03:31:42;;;;;;;29.70;16.67;;;;;;;-2.05;90.50;97010.31;4996874;28;20822;-75
2021/03/24 03:34:12;;;;;;;28.30;15.27;;;;;;;-2.09;90.42;97008.75;5102745;27;20094;-76
2021/03/24 03:36:41;;;;;;;27.33;15.40;;;;;;;-2.07;90.66;97006.97;5010523;28;20469;-75
2021/03/24 03:39:11;;;;;;;28.57;14.63;;;;;;;-2.08;90.35;97000.13;5076308;28;20517;-76
2021/03/24 03:41:37;;;;;;;29.53;15.37;;;;;;;-2.06;90.72;97004.31;4999439;28;20457;-76
2021/03/24 03:44:05;;;;;;;32.17;16.70;;;;;;;-2.08;90.72;97000.94;5000824;28;20493;-76
2021/03/24 03:46:35;;;;;;;30.80;15.33;;;;;;;-2.08;90.87;96994.97;4983919;28;20033;-76
2021/03/24 03:49:01;;;;;;;32.40;15.03;;;;;;;-2.03;90.49;97001.63;4992854;28;20441;-76
2021/03/24 03:51:44;;;;;;;31.20;14.50;;;;;;;-2.00;90.25;96998.91;4979671;28;20454;-76
2021/03/24 03:54:25;;;;;;;29.97;15.43;;;;;;;-1.97;90.26;96997.97;4985349;28;20564;-76
2021/03/24 03:57:18;;;;;;;35.57;16.37;;;;;;;-1.94;90.45;97003.00;4986516;28;20035;-76
2021/03/24 03:59:51;;;;;;;28.33;14.97;;;;;;;-1.99;90.01;97010.06;5000716;28;20473;-76
2021/03/24 04:02:20;;;;;;;29.23;13.98;;;;;;;-2.08;90.33;97010.44;4999105;28;20437;-77
2021/03/24 04:04:56;;;;;;;28.40;14.40;;;;;;;-2.21;90.61;97010.94;5006612;28;20098;-77
2021/03/24 04:07:26;;;;;;;29.10;15.43;;;;;;;-2.20;90.73;97002.31;4989220;28;20466;-77
2021/03/24 04:09:55;;;;;;;26.40;15.03;;;;;;;-2.25;90.85;97004.22;4975885;28;20516;-77
2021/03/24 04:12:25;;;;;;;32.30;14.90;;;;;;;-2.27;90.95;97011.19;4993599;28;20525;-76
2021/03/24 04:14:52;;;;;;;29.47;15.80;;;;;;;-2.25;90.90;97014.53;4981660;28;20465;-76
2021/03/24 04:17:49;;;;;;;27.37;15.17;;;;;;;-2.26;91.34;97015.44;5079676;28;20464;-75
2021/03/24 04:20:18;;;;;;;27.73;15.50;;;;;;;-2.30;91.20;97013.06;4993361;28;20453;-77
2021/03/24 04:22:47;;;;;;;34.40;17.67;;;;;;;-2.31;91.30;97017.38;4986468;28;20489;-77
2021/03/24 04:25:39;;;;;;;28.13;15.40;;;;;;;-2.35;91.93;97017.53;4990749;28;20504;-76
2021/03/24 04:28:07;;;;;;;30.83;16.13;;;;;;;-2.42;91.13;97017.78;5003299;28;21113;-76
2021/03/24 04:30:44;;;;;;;31.93;16.37;;;;;;;-2.45;92.33;97017.91;4989477;28;20477;-76
2021/03/24 04:33:10;;;;;;;35.13;18.53;;;;;;;-2.45;92.47;97022.22;4992561;28;20435;-76
2021/03/24 04:35:38;;;;;;;29.33;17.13;;;;;;;-2.44;92.15;97022.16;5096995;28;20456;-76
2021/03/24 04:38:14;;;;;;;31.47;16.50;;;;;;;-2.49;92.00;97024.06;4984779;28;20113;-76
2021/03/24 04:40:57;;;;;;;33.80;17.53;;;;;;;-2.61;92.36;97027.97;5071763;28;20470;-76
2021/03/24 04:43:26;;;;;;;37.07;17.43;;;;;;;-2.54;92.44;97014.88;5002377;28;20945;-76
2021/03/24 04:45:57;;;;;;;34.43;18.43;;;;;;;-2.52;92.22;97016.47;5080778;28;20601;-76
2021/03/24 04:48:43;;;;;;;33.03;17.10;;;;;;;-2.52;92.45;97021.59;4993836;28;20430;-76
2021/03/24 04:51:18;;;;;;;34.70;17.50;;;;;;;-2.46;92.60;97026.53;4995090;28;20515;-76
2021/03/24 04:53:57;;;;;;;33.20;17.27;;;;;;;-2.50;92.45;97021.56;5005901;28;20464;-76
2021/03/24 04:56:24;;;;;;;34.27;16.17;;;;;;;-2.52;92.13;97021.59;5028270;28;20497;-76
2021/03/24 04:58:55;;;;;;;35.97;16.83;;;;;;;-2.47;92.43;97018.88;5019624;28;20453;-76
2021/03/24 05:01:32;;;;;;;33.37;17.17;;;;;;;-2.53;92.48;97030.25;5001931;28;20442;-77
2021/03/24 05:04:06;;;;;;;;;;;;;;;-2.52;92.35;97028.50;4981330;28;20461;-76
2021/03/24 05:06:51;;;;;;;41.05;17.60;;;;;;;-2.50;92.17;97034.44;5074852;28;20012;-76
2021/03/24 05:09:17;;;;;;;30.87;15.93;;;;;;;-2.50;91.99;97032.69;4997979;28;20113;-76
2021/03/24 05:11:51;;;;;;;30.57;16.27;;;;;;;-2.50;92.20;97039.59;5000294;28;20452;-76
2021/03/24 05:14:26;;;;;;;32.07;17.03;;;;;;;-2.48;92.32;97035.19;4990594;28;20125;-76
2021/03/24 05:17:05;;;;;;;37.93;16.67;;;;;;;-2.55;92.12;97038.91;4991176;28;20481;-77
2021/03/24 05:19:30;;;;;;;38.57;19.23;;;;;;;-2.65;92.42;97041.88;4993239;28;20550;-76
2021/03/24 05:22:08;;;;;;;29.70;16.27;;;;;;;-2.65;92.78;97039.28;5000112;28;21194;-76
2021/03/24 05:24:37;;;;;;;30.00;16.07;;;;;;;-2.61;92.15;97046.00;4998335;28;20231;-76
2021/03/24 05:27:27;;;;;;;30.40;18.10;;;;;;;-2.58;92.67;97042.47;4993043;28;20429;-76
2021/03/24 05:29:58;;;;;;;33.43;17.20;;;;;;;-2.56;92.23;97045.81;5078103;27;20481;-75
2021/03/24 05:32:33;;;;;;;37.23;18.83;;;;;;;-2.43;92.03;97041.03;4991548;28;20472;-76
2021/03/24 05:35:00;;;;;;;34.57;18.93;;;;;;;-2.37;92.07;97041.63;4993832;28;20568;-76
2021/03/24 05:37:31;;;;;;;39.97;17.80;;;;;;;-2.13;91.67;97039.81;4992549;28;20454;-76
2021/03/24 05:40:27;;;;;;;35.40;18.30;;;;;;;-1.87;90.90;97044.81;4997346;28;20843;-76
2021/03/24 05:43:18;;;;;;;32.63;17.63;;;;;;;-1.61;89.96;97041.13;4992859;28;20472;-76
2021/03/24 05:45:55;;;;;;;36.33;17.23;;;;;;;-1.27;88.64;97043.94;4991781;28;20926;-76
2021/03/24 05:48:49;;;;;;;31.20;16.97;;;;;;;-1.19;87.92;97047.03;4993454;28;20808;-76
2021/03/24 05:51:38;;;;;;;22.15;11.43;;;;;;;-0.84;86.76;97043.78;4980118;28;20477;-76
2021/03/24 05:54:19;;;;;;;28.70;15.63;;;;;;;-0.75;84.93;97046.78;5095226;27;20057;-76
2021/03/24 05:56:54;;;;;;;26.80;15.20;;;;;;;-0.84;84.69;97043.78;5003249;28;20489;-76
2021/03/24 05:59:34;;;;;;;27.33;15.10;;;;;;;-0.97;85.43;97048.69;4998403;28;20481;-75
2021/03/24 06:02:08;;;;;;;29.63;15.20;;;;;;;-0.73;85.84;97049.31;4975018;28;21078;-76
2021/03/24 06:04:49;;;;;;;30.57;15.20;;;;;;;-0.58;84.83;97050.34;4997000;28;20534;-76
2021/03/24 06:07:52;;;;;;;30.50;16.37;;;;;;;-0.34;83.37;97045.75;4998185;28;20480;-76
2021/03/24 06:10:20;;;;;;;32.53;16.23;;;;;;;-0.40;84.27;97039.16;5001538;28;20542;-76
2021/03/24 06:12:52;;;;;;;31.53;16.13;;;;;;;0.11;82.81;97044.47;5000840;28;20696;-76
2021/03/24 06:15:43;;;;;;;28.87;14.87;;;;;;;0.04;81.76;97040.53;4990981;28;20461;-76
2021/03/24 06:18:51;;;;;;;32.10;14.97;;;;;;;0.23;82.62;97038.69;4989928;28;20471;-76
2021/03/24 06:21:42;;;;;;;25.60;15.63;;;;;;;0.85;79.16;97036.44;5086304;28;20473;-76
2021/03/24 06:24:24;;;;;;;32.30;17.23;;;;;;;0.36;80.36;97039.75;4997506;28;20485;-76
2021/03/24 06:27:03;;;;;;;31.27;16.47;;;;;;;0.85;79.07;97036.44;4977765;28;20468;-76
2021/03/24 06:29:29;;;;;;;27.37;16.57;;;;;;;0.83;79.91;97041.66;4999347;28;20513;-76
2021/03/24 06:32:22;;;;;;;25.50;14.50;;;;;;;1.04;79.96;97037.16;4989415;28;20493;-76
2021/03/24 06:35:34;;;;;;;29.77;17.23;;;;;;;2.15;75.05;97044.03;5003124;28;20037;-77
2021/03/24 06:38:37;;;;;;;29.33;16.00;;;;;;;1.95;73.70;97040.81;4978735;28;21029;-76
2021/03/24 06:41:24;;;;;;;27.87;15.37;;;;;;;2.08;73.59;97033.19;4983812;28;20449;-76
2021/03/24 06:44:41;;;;;;;26.13;16.13;;;;;;;2.23;74.74;97037.47;5013118;28;20507;-77
2021/03/24 06:47:40;;;;;;;22.43;14.00;;;;;;;2.08;74.75;97031.41;4995190;28;20469;-76
2021/03/24 06:50:24;;;;;;;25.40;16.57;;;;;;;2.26;74.67;97039.91;5028154;28;20498;-77
2021/03/24 06:53:14;;;;;;;23.17;14.23;;;;;;;2.41;73.71;97032.97;4985353;28;20472;-75
2021/03/24 06:55:52;;;;;;;25.87;14.83;;;;;;;2.43;74.09;97025.94;5019270;28;20534;-78
2021/03/24 06:58:56;;;;;;;26.50;14.57;;;;;;;2.26;73.62;97033.88;5007691;28;20800;-76
2021/03/24 07:01:34;;;;;;;24.27;14.85;;;;;;;2.97;71.26;97033.97;4996421;28;20493;-76
2021/03/24 07:04:37;;;;;;;26.03;14.73;;;;;;;3.88;68.84;97031.78;4977539;28;20136;-77
2021/03/24 07:07:22;;;;;;;25.73;15.03;;;;;;;4.01;68.09;97040.47;4979006;28;21074;-76
2021/03/24 07:10:06;;;;;;;23.13;13.93;;;;;;;5.20;64.63;97028.22;5073538;28;20489;-77
2021/03/24 07:12:58;;;;;;;23.90;14.60;;;;;;;5.09;63.48;97028.09;4977478;28;20497;-77
2021/03/24 07:15:40;;;;;;;24.20;15.43;;;;;;;4.34;66.72;97030.56;4979603;28;20033;-77
2021/03/24 07:18:27;;;;;;;23.77;14.80;;;;;;;4.57;66.97;97031.66;4990486;28;20577;-79
2021/03/24 07:21:28;;;;;;;25.93;14.90;;;;;;;5.07;65.02;97035.22;5005458;28;20038;-78
2021/03/24 07:24:18;;;;;;;25.30;14.67;;;;;;;5.09;65.43;97033.31;5008248;28;20058;-77
2021/03/24 07:27:09;;;;;;;24.63;14.20;;;;;;;5.78;61.28;97041.53;5004993;28;20510;-78
2021/03/24 07:30:05;;;;;;;25.13;13.83;;;;;;;6.08;60.64;97033.28;4985214;28;20134;-76
2021/03/24 07:32:40;;;;;;;23.93;15.03;;;;;;;5.98;62.28;97029.69;5011837;28;20095;-78
2021/03/24 07:35:26;;;;;;;24.17;13.57;;;;;;;6.74;59.42;97025.75;4981827;28;20054;-77
2021/03/24 07:38:15;;;;;;;24.37;14.63;;;;;;;7.54;57.78;97030.91;5090469;28;20128;-78
2021/03/24 07:41:10;;;;;;;24.40;15.03;;;;;;;6.65;59.76;97032.53;5099277;28;20495;-78
2021/03/24 07:43:55;;;;;;;24.73;15.03;;;;;;;6.50;59.84;97036.28;4998855;28;20031;-78
2021/03/24 07:46:27;;;;;;;23.33;15.40;;;;;;;6.85;58.86;97036.25;5002994;28;20616;-78
2021/03/24 07:49:14;;;;;;;27.70;15.83;;;;;;;7.66;58.10;97036.97;5017085;28;20498;-79
2021/03/24 07:52:10;;;;;;;24.93;14.07;;;;;;;7.94;56.41;97032.97;4984106;28;20045;-78
2021/03/24 07:54:55;;;;;;;22.73;15.37;;;;;;;8.09;55.65;97034.38;5009427;28;20035;-78
2021/03/24 07:57:48;;;;;;;25.53;14.63;;;;;;;8.01;54.66;97039.38;5005827;28;20049;-78
2021/03/24 08:00:14;;;;;;;23.07;14.33;;;;;;;7.65;57.68;97044.00;5001006;28;20065;-78
2021/03/24 08:02:58;;;;;;;20.87;14.20;;;;;;;8.64;55.13;97031.66;4996887;28;20103;-78
2021/03/24 08:05:26;;;;;;;;;;;;;;;9.57;52.09;97025.50;5000728;28;20068;-79
2021/03/24 08:08:11;;;;;;;19.93;13.13;;;;;;;7.99;55.71;97030.84;5095495;28;19967;-78
2021/03/24 08:11:15;;;;;;;23.07;13.97;;;;;;;9.26;53.47;97019.47;4988876;28;20089;-78
2021/03/24 08:13:47;;;;;;;21.87;13.43;;;;;;;9.81;51.77;97018.09;4997442;28;20495;-78
2021/03/24 08:16:35;;;;;;;24.07;13.80;;;;;;;10.62;48.62;97018.72;4987936;28;20454;-78
2021/03/24 08:19:21;;;;;;;23.07;13.63;;;;;;;9.70;50.50;97020.03;4990128;28;20101;-78
2021/03/24 08:22:20;;;;;;;20.10;12.23;;;;;;;10.44;48.41;97025.66;4991900;28;20033;-78
2021/03/24 08:24:58;;;;;;;18.87;11.87;;;;;;;10.18;48.52;97024.53;4988056;28;20122;-78
2021/03/24 08:27:38;;;;;;;23.90;14.27;;;;;;;10.05;49.83;97024.78;4995102;28;20038;-78
2021/03/24 08:30:19;;;;;;;20.43;12.63;;;;;;;9.96;49.45;97013.31;5007066;28;20121;-78
2021/03/24 08:33:02;;;;;;;23.13;12.83;;;;;;;10.48;47.46;97019.16;5083442;28;20526;-79
2021/03/24 08:35:28;;;;;;;21.07;12.67;;;;;;;10.12;49.12;97018.00;4999572;28;20157;-78
2021/03/24 08:38:18;;;;;;;20.20;12.93;;;;;;;10.50;47.94;97019.84;4992633;28;20507;-79
2021/03/24 08:41:05;;;;;;;23.87;14.23;;;;;;;11.12;46.26;97025.56;4991181;28;20032;-78
2021/03/24 08:43:46;;;;;;;21.30;13.40;;;;;;;10.28;47.06;97025.38;5002351;28;20041;-78
2021/03/24 08:46:23;;;;;;;24.40;13.73;;;;;;;9.93;47.70;97026.72;5002915;28;20515;-78
2021/03/24 08:48:54;;;;;;;21.60;13.90;;;;;;;9.43;49.79;97024.09;4984947;28;20045;-78
2021/03/24 08:51:53;;;;;;;23.23;13.77;;;;;;;10.55;47.70;97017.63;4995836;28;20035;-78
2021/03/24 08:54:22;;;;;;;21.73;12.97;;;;;;;11.72;44.01;97002.28;5008861;28;20113;-78
2021/03/24 08:57:01;;;;;;;22.73;13.27;;;;;;;12.02;42.43;97008.25;5088905;27;20022;-78
2021/03/24 08:59:50;;;;;;;20.60;13.30;;;;;;;12.67;42.52;97005.34;4994863;28;20030;-78
2021/03/24 09:02:18;;;;;;;23.13;13.47;;;;;;;12.11;42.07;97006.53;4983854;28;20052;-79
2021/03/24 09:05:08;;;;;;;22.80;14.57;;;;;;;11.84;44.74;97002.97;5003948;28;20026;-78
2021/03/24 09:07:59;;;;;;;19.17;11.87;;;;;;;11.66;43.70;97002.03;5001030;28;20026;-79
2021/03/24 09:10:25;;;;;;;19.73;12.23;;;;;;;12.13;43.12;97001.91;5081819;28;20106;-80
2021/03/24 09:13:07;;;;;;;20.30;12.40;;;;;;;12.72;42.60;96998.63;4990587;28;20129;-79
2021/03/24 09:15:56;;;;;;;23.47;11.57;;;;;;;12.37;42.77;96998.69;5009635;28;20033;-79
2021/03/24 09:18:38;;;;;;;19.13;11.90;;;;;;;12.17;43.13;96998.00;5007189;28;20090;-79
2021/03/24 09:21:12;;;;;;;21.50;12.37;;;;;;;12.70;42.96;96997.13;4999959;28;20065;-78
2021/03/24 09:23:58;;;;;;;19.20;12.83;;;;;;;12.37;42.09;96993.41;5008391;28;20034;-77
2021/03/24 09:27:01;;;;;;;20.73;11.83;;;;;;;11.22;44.71;97000.03;4986143;28;20041;-77
2021/03/24 09:29:59;;;;;;;19.23;11.07;;;;;;;11.14;46.04;96991.22;5002134;28;20487;-78
2021/03/24 09:32:45;;;;;;;18.70;11.07;;;;;;;11.78;44.38;96983.25;4959444;28;20443;-77
2021/03/24 09:35:29;;;;;;;17.77;11.93;;;;;;;12.72;42.10;96980.16;5073447;28;20030;-78
2021/03/24 09:38:04;;;;;;;18.90;12.10;;;;;;;13.76;41.66;96971.31;4989080;28;20052;-77
2021/03/24 09:40:40;;;;;;;19.50;11.53;;;;;;;12.55;42.17;96983.69;5040523;28;20030;-80
2021/03/24 09:43:22;;;;;;;29.33;13.07;;;;;;;12.49;42.88;96982.47;5099465;28;20049;-80
2021/03/24 09:46:08;;;;;;;17.17;10.93;;;;;;;12.75;42.65;96973.75;4997153;28;20038;-80
2021/03/24 09:48:48;;;;;;;21.40;12.50;;;;;;;13.67;40.50;96969.63;4983676;28;20042;-78
2021/03/24 09:51:20;;;;;;;19.60;13.67;;;;;;;12.34;43.16;96970.81;5004144;28;20487;-78
2021/03/24 09:53:46;;;;;;;19.13;12.50;;;;;;;12.06;43.23;96967.41;4987401;28;20034;-77
2021/03/24 09:56:16;;;;;;;20.43;12.53;;;;;;;13.23;41.95;96955.72;4986392;28;20022;-78
2021/03/24 09:59:04;;;;;;;20.47;12.23;;;;;;;13.73;39.49;96960.22;4999678;28;20030;-77
2021/03/24 10:01:38;;;;;;;20.93;12.77;;;;;;;15.17;38.34;96940.22;4993539;28;20034;-78
2021/03/24 10:04:51;;;;;;;17.47;11.93;;;;;;;14.88;37.94;96947.91;4990508;28;20095;-79
2021/03/24 10:07:22;;;;;;;16.83;11.07;;;;;;;14.78;38.70;96946.25;4985289;28;20053;-78
2021/03/24 10:09:58;;;;;;;15.40;10.80;;;;;;;15.38;37.26;96944.13;5014011;28;20684;-79
2021/03/24 10:12:28;;;;;;;13.40;9.20;;;;;;;15.99;36.52;96937.19;4972968;28;20458;-78
2021/03/24 10:15:10;;;;;;;15.73;10.17;;;;;;;16.21;36.96;96936.38;4994401;28;20049;-78
2021/03/24 10:17:53;;;;;;;19.90;11.37;;;;;;;15.97;34.58;96934.72;4972908;28;20080;-78
2021/03/24 10:20:52;;;;;;;18.33;11.23;;;;;;;15.31;37.17;96944.78;5011175;28;20026;-79
2021/03/24 10:23:27;;;;;;;18.30;10.52;;;;;;;15.82;35.59;96933.81;4967391;28;20041;-78
2021/03/24 10:26:08;;;;;;;14.27;9.45;;;;;;;15.97;33.36;96931.25;4987674;28;20053;-78
2021/03/24 10:29:05;;;;;;;19.95;10.55;;;;;;;15.78;35.59;96935.97;4990335;28;20685;-78
2021/03/24 10:31:50;;;;;;;14.77;9.38;;;;;;;16.75;34.86;96926.66;4991226;28;20418;-78
2021/03/24 10:34:31;;;;;;;17.00;9.98;;;;;;;16.53;34.31;96926.47;4991635;28;20045;-78
2021/03/24 10:37:09;;;;;;;16.70;10.52;;;;;;;16.58;34.10;96921.47;5070009;28;20026;-78
2021/03/24 10:39:40;;;;;;;15.68;9.63;;;;;;;17.18;33.34;96917.91;4988917;28;20030;-78
2021/03/24 10:42:25;;;;;;;15.55;10.50;;;;;;;16.67;33.18;96920.41;4982103;28;20069;-78
2021/03/24 10:45:10;;;;;;;18.77;12.10;;;;;;;16.19;36.65;96922.44;4996279;28;20121;-78
2021/03/24 10:47:45;;;;;;;16.13;10.93;;;;;;;15.90;35.15;96917.03;4983635;28;20038;-77
2021/03/24 10:50:16;;;;;;;17.73;11.02;;;;;;;13.86;39.63;96924.41;5080755;28;20026;-78
2021/03/24 10:53:05;;;;;;;17.02;12.63;;;;;;;16.49;35.25;96906.63;5092040;27;20030;-78
2021/03/24 10:55:32;;;;;;;15.32;10.77;;;;;;;16.50;34.82;96906.44;4984865;28;20039;-78
2021/03/24 10:58:33;;;;;;;13.98;9.75;;;;;;;16.99;34.10;96907.00;4997504;28;20368;-79
2021/03/24 11:01:24;;;;;;;15.07;10.00;;;;;;;16.58;33.79;96907.38;5088012;27;20065;-78
2021/03/24 11:03:54;;;;;;;16.00;11.30;;;;;;;17.30;34.34;96904.13;5028005;28;20034;-78
2021/03/24 11:06:36;;;;;;;16.00;11.18;;;;;;;17.22;34.21;96901.59;4978480;28;20100;-79
2021/03/24 11:09:13;;;;;;;17.48;11.23;;;;;;;16.78;33.77;96902.41;4995874;28;20132;-78
2021/03/24 11:12:00;;;;;;;18.80;10.63;;;;;;;16.87;33.67;96896.00;4992352;28;20072;-79
2021/03/24 11:14:31;;;;;;;18.80;11.30;;;;;;;16.49;34.76;96885.38;5006045;28;20041;-79
2021/03/24 11:17:05;;;;;;;17.90;11.27;;;;;;;16.60;34.83;96892.91;4998233;28;20035;-79
2021/03/24 11:19:34;;;;;;;22.83;13.10;;;;;;;17.67;33.67;96879.19;5000701;28;20030;-79
2021/03/24 11:22:12;;;;;;;19.08;11.85;;;;;;;18.00;32.74;96887.56;4997928;28;20027;-78
2021/03/24 11:24:55;;;;;;;16.50;10.98;;;;;;;17.73;32.50;96888.28;4999078;28;20579;-78
2021/03/24 11:27:40;;;;;;;15.23;10.85;;;;;;;17.05;33.74;96885.81;5017557;28;20034;-79
2021/03/24 11:30:20;;;;;;;18.13;11.15;;;;;;;18.06;32.60;96889.47;4986791;28;20034;-78
2021/03/24 11:32:49;;;;;;;16.88;11.13;;;;;;;17.66;31.87;96878.38;5007967;28;20057;-78
2021/03/24 11:35:29;;;;;;;15.05;11.07;;;;;;;18.10;31.48;96872.09;4999120;28;20054;-78
2021/03/24 11:38:19;;;;;;;12.80;10.10;;;;;;;18.60;31.00;96869.44;4987032;28;20727;-79
2021/03/24 11:40:56;;;;;;;16.67;11.63;;;;;;;19.52;29.98;96868.34;4971185;28;20415;-79
2021/03/24 11:43:31;;;;;;;15.25;10.23;;;;;;;19.49;30.07;96864.22;4992414;28;20041;-79
2021/03/24 11:46:21;;;;;;;16.33;11.32;;;;;;;17.37;33.54;96867.81;4970595;28;20026;-80
2021/03/24 11:49:08;;;;;;;14.80;10.70;;;;;;;17.68;33.00;96875.56;4982536;28;20025;-79
2021/03/24 11:52:00;;;;;;;16.05;11.15;;;;;;;16.70;33.76;96872.25;4990472;28;20030;-79
2021/03/24 11:54:37;;;;;;;16.98;10.98;;;;;;;16.08;34.22;96877.75;4972686;28;20106;-79
2021/03/24 11:57:30;;;;;;;17.80;11.25;;;;;;;15.60;36.24;96874.44;4980221;28;20041;-80
2021/03/24 12:00:17;;;;;;;15.57;10.50;;;;;;;16.54;34.33;96869.75;5060453;28;20065;-79
2021/03/24 12:03:07;;;;;;;18.17;11.18;;;;;;;17.54;34.19;96865.75;4992139;28;20042;-79
2021/03/24 12:05:36;;;;;;;16.08;10.25;;;;;;;17.72;32.19;96860.84;4974916;28;20039;-79
2021/03/24 12:08:34;;;;;;;13.65;9.98;;;;;;;16.17;32.91;96866.09;4999713;28;20041;-80